Airfield :
LOGIN :

Register | Disclaimer

   EN    FR    IT 

 










Legend :    VFR   Marginal VFR   IFR   Intensive IFR   Very Intensive IFR
Visi :
Ceiling :
>= 8 km
>= 3000ft
5 to 8 km
1000 to 3000 ft
1500m to 5 km
500 to 1000 ft
800 to 1500m
200 to 500 ft
< 800m
< 200 ft
Symbols :   Thunderstorms  Fog  Heavy snow  Heavy precipitations  Wind > 20 kt
SIGMETs :     Misc.  Thunderstorms  Icing  Turbulence  Mountain Waves  Volcanic Ashes






- Airport Elevation : 75 ft
- IATA code : YEO


EGDY - RNAS Yeovilton

CURRENT METAR :
  • 141921Z 30011KT 9999 FEW030 BKN080 15/10 Q1017 BLU

EXPIRED METARs :
  • 141850Z 31011KT 9999 SCT030 BKN080 16/10 Q1017 NOSIG RMK BLU BLU
  • 141750Z 31016KT 9999 FEW030 OVC180 16/09 Q1017 NOSIG RMK BLU BLU
  • 141723Z 30015KT 9999 FEW030 BKN200 16/11 Q1017 NOSIG RMK BLU BLU
  • 141650Z 29016KT 9999 FEW030 OVC180 16/10 Q1017 NOSIG RMK BLU BLU

TAF TAF EGDY
Valid from the 14 at 18:00 until the 15 at 03:00 UTC


141700Z 1418/1503 29015KT 9999 FEW030
PROB30
TEMPO 1421/1423 6000 -RADZ FEW025
BECMG 1422/1424 7000 RA BKN007
PROB40
TEMPO 1501/1503 3000 BR



MET'MAP, your aeronautical weather chart ! - Copyright ORBIFLY December 2007 - Disclaimer

ORBIFLY MET'MAP TEAM :

Programming & Development : Alexandra Zaïnal
Concept & original design : Baudouin d'Aumeries
Assistance for programming : Marc-Olivier Méhu
Technical & hardware support : Manuel Goepfert

Contact : metmap@orbifly.com




SOURCES & CREDITS :

   NOAA